Cincinnati, OH

1:42 AM EST on December 27, 2014 (GMT -0500)
Butler County Regional | Change Station
CLOSE
Current Station
Airport
Location: Hamilton,
Elevation: 633 ft
Nearby Weather Stations

Elev 633 ft 39.36 °N, 84.52 °W | Updated 49 minutes ago

Partly Cloudy
Partly Cloudy
36 °F
Feels Like 36 °F
N
0
Wind Variable Wind from North

Today
High -- | Low -- °F
--% Chance of Precip.
Yesterday
High -- | Low -- °F
Precip. -- in
7:56 AM 5:22 PM
Waxing Crescent, 33% visible
Pressure 30.20 in
Visibility 10.0 miles
Clouds Mostly Cloudy 6000 ft
Dew Point 32 °F
Humidity 86%
Rainfall 0.00 in
Snow Depth Not available.
UV 0 out of 12
Pollen .10 out of 12
Air Quality Not available.
Flu Activity Not available.
METAR KHAO 270553Z AUTO 00000KT 10SM BKN060 02/00 A3019 RMK AO2 SLP227 T00220000 10100 20011 51005

More Conditions Fewer Conditions

Pressure 30.20 in
Visibility 10.0 miles
Clouds Mostly Cloudy 6000 ft
Dew Point 32 °F
Humidity 86%
Rainfall 0.00 in
Snow Depth Not available.
UV 0 out of 12
Pollen .10 out of 12
Air Quality Not available.
Flu Activity Not available.
METAR KHAO 270553Z AUTO 00000KT 10SM BKN060 02/00 A3019 RMK AO2 SLP227 T00220000 10100 20011 51005

More Conditions Fewer Conditions

10-Day Weather Forecast

Almanac

Astronomy

Dec. 27, 2014 Rise Set
Actual Time
Civil Twilight
Nautical Twilight
Astronomical Twilight
Moon
Length of Visible Light
Length of Day
Tomorrow will be .
, % of the Moon is Illuminated

Today's Extremes

State Highs State Lows

Community

WunderPhotos

Upload Photos

1,780,863 photos uploaded!

WunderBlogs® & News

Nearby

Air Quality

  Air Quality AQ Index Pollutant
Not available.

Snow Depth

Station Depth Elevation

Earthquake Activity

City Distance Mag. Time & Date
Minimum magnitude displayed is 2.5.

Coastal Water Temperatures

Place Temperature

Nearby Weather Stations